Terminal Aerodrome Forecast
Issued by NWS Quad Cities IA IL

Home | Current Version | Previous Version | Text Only | Print | Product List | Glossary On
Versions: 1 2 3 4 5 6 7 8 9 10 11 12 13 14 15 16 17 18 19
000
FTUS43 KDVN 061127
TAFMLI
TAF
KMLI 061127Z 0612/0712 19006KT 4SM HZ SCT040 OVC150
     FM061500 19013KT 6SM HZ BKN040 PROB30 0621/0624 3SM TSRA BR
      OVC035CB
     FM070000 19010KT 4SM TSRA BR SCT020 OVC035CB
     FM070300 19010KT P6SM OVC040 PROB30 0703/0706 4SM -TSRA BR
      OVC025CB
     FM070600 26010KT P6SM BKN025=

USA.gov is the U.S. government's official web portal to all federal, state and local government web resources and services.